Time;durP1;ratioP1;P1;durP2;ratioP2;P2;SDS_P1;SDS_P2;PMS_P1;PMS_P2;Temp;Humidity;BMP_temperature;BMP_pressure;BME280_temperature;BME280_humidity;BME280_pressure;Samples;Min_cycle;Max_cycle;Signal;HPM_P1;HPM_P2
2022/05/24 00:01:33;;;;;;;;;;;11.70;99.90;;;;;;5073017;28;19908;-74
2022/05/24 00:03:59;;;;;;;;;;;11.60;99.90;;;;;;5073001;28;19909;-75
2022/05/24 00:06:29;;;;;;;;;;;11.60;99.90;;;;;;5072938;28;19916;-75
2022/05/24 00:08:55;;;;;;;;;;;11.50;99.90;;;;;;5072645;28;19908;-75
2022/05/24 00:11:20;;;;;;;;;;;11.70;99.90;;;;;;5054799;28;20336;-75
2022/05/24 00:13:46;;;;;;;;;;;11.70;99.90;;;;;;5072868;28;19909;-76
2022/05/24 00:16:12;;;;;;;;;;;11.70;99.90;;;;;;5072867;28;19909;-75
2022/05/24 00:18:37;;;;;;;;;;;11.60;99.90;;;;;;5072837;28;19913;-77
2022/05/24 00:21:03;;;;;;;;;;;11.40;99.90;;;;;;5054327;28;19908;-74
2022/05/24 00:23:30;;;;;;;;;;;11.40;99.90;;;;;;5072940;28;20368;-74
2022/05/24 00:25:57;;;;;;;;;;;11.50;99.90;;;;;;5074671;28;20343;-76
2022/05/24 00:28:24;;;;;;;;;;;11.50;99.90;;;;;;5076607;28;19916;-76
2022/05/24 00:30:50;;;;;;;;;;;11.60;99.90;;;;;;5076021;28;19908;-74
2022/05/24 00:33:16;;;;;;;;;;;11.70;99.90;;;;;;5067291;28;20477;-75
2022/05/24 00:35:43;;;;;;;;;;;11.70;99.90;;;;;;5076256;28;19916;-74
2022/05/24 00:38:10;;;;;;;;;;;11.60;99.90;;;;;;5076482;28;19966;-76
2022/05/24 00:40:36;;;;;;;;;;;11.60;99.90;;;;;;5075841;28;19936;-75
2022/05/24 00:43:03;;;;;;;;;;;11.70;99.90;;;;;;5076300;28;20430;-75
2022/05/24 00:45:40;;;;;;;;;;;11.90;99.90;;;;;;5075892;28;19934;-78
2022/05/24 00:48:07;;;;;;;;;;;11.70;99.90;;;;;;5076218;28;19919;-75
2022/05/24 00:50:36;;;;;;;;;;;11.60;99.90;;;;;;5057671;28;19908;-78
2022/05/24 00:53:04;;;;;;;;;;;11.60;99.90;;;;;;5076169;28;19962;-77
2022/05/24 00:55:34;;;;;;;;;;;11.50;99.90;;;;;;5075918;28;19908;-75
2022/05/24 00:58:19;;;;;;;;;;;11.40;99.90;;;;;;5075740;28;20353;-75
2022/05/24 01:00:45;;;;;;;;;;;11.40;99.90;;;;;;5075384;28;19962;-75
2022/05/24 01:03:11;;;;;;;;;;;11.30;99.90;;;;;;5075417;28;19909;-75
2022/05/24 01:05:37;;;;;;;;;;;11.20;99.90;;;;;;5075704;28;19915;-76
2022/05/24 01:08:03;;;;;;;;;;;11.10;99.90;;;;;;5075902;28;19909;-77
2022/05/24 01:10:32;;;;;;;;;;;11.00;99.90;;;;;;5075313;28;19954;-74
2022/05/24 01:13:30;;;;;;;;;;;11.00;99.90;;;;;;5075680;28;19913;-75
2022/05/24 01:15:56;;;;;;;;;;;10.90;99.90;;;;;;5031261;28;19908;-75
2022/05/24 01:18:23;;;;;;;;;;;11.10;99.90;;;;;;5075628;28;20330;-76
2022/05/24 01:20:51;;;;;;;;;;;11.10;99.90;;;;;;5075108;28;20292;-74
2022/05/24 01:23:37;;;;;;;;;;;11.00;99.90;;;;;;5075540;28;19909;-76
2022/05/24 01:26:25;;;;;;;;;;;11.10;99.90;;;;;;5075552;28;19943;-76
2022/05/24 01:28:51;;;;;;;;;;;11.20;99.90;;;;;;5075448;28;19908;-76
2022/05/24 01:31:18;;;;;;;;;;;11.10;99.90;;;;;;5074985;28;19909;-76
2022/05/24 01:36:29;;;;;;;;;;;11.20;99.90;;;;;;5074877;28;19931;-75
2022/05/24 01:39:00;;;;;;;;;;;11.10;99.90;;;;;;5075231;28;19959;-76
2022/05/24 01:41:34;;;;;;;;;;;11.20;99.90;;;;;;5074653;28;19948;-76
2022/05/24 01:44:00;;;;;;;;;;;11.20;99.90;;;;;;5075047;28;19934;-76
2022/05/24 01:46:30;;;;;;;;;;;11.10;99.90;;;;;;5074982;28;19912;-75
2022/05/24 01:48:57;;;;;;;;;;;11.20;99.90;;;;;;5075263;28;20373;-74
2022/05/24 01:51:24;;;;;;;;;;;11.10;99.90;;;;;;5074498;28;19908;-77
2022/05/24 01:53:52;;;;;;;;;;;11.30;99.90;;;;;;5056948;28;19908;-76
2022/05/24 01:56:20;;;;;;;;;;;11.40;99.90;;;;;;5074847;28;20082;-77
2022/05/24 01:58:49;;;;;;;;;;;11.40;99.90;;;;;;5074766;28;19908;-74
2022/05/24 02:01:41;;;;;;;;;;;11.50;99.90;;;;;;5074373;28;19915;-75
2022/05/24 02:04:06;;;;;;;;;;;11.40;99.90;;;;;;5043632;28;20380;-76
2022/05/24 02:06:32;;;;;;;;;;;11.40;99.90;;;;;;5074586;28;19913;-77
2022/05/24 02:08:58;;;;;;;;;;;11.30;99.90;;;;;;5056508;28;19913;-74
2022/05/24 02:11:28;;;;;;;;;;;11.40;99.90;;;;;;5074222;28;19915;-75
2022/05/24 02:14:00;;;;;;;;;;;11.30;99.90;;;;;;5074527;28;20037;-75
2022/05/24 02:16:26;;;;;;;;;;;11.20;99.90;;;;;;5074466;28;19908;-74
2022/05/24 02:18:54;;;;;;;;;;;11.10;99.90;;;;;;5074371;28;19995;-76
2022/05/24 02:21:21;;;;;;;;;;;11.20;99.90;;;;;;5073911;28;19908;-74
2022/05/24 02:23:48;;;;;;;;;;;11.40;99.90;;;;;;5074262;28;19996;-74
2022/05/24 02:26:15;;;;;;;;;;;11.30;99.90;;;;;;5072934;28;20409;-77
2022/05/24 02:28:40;;;;;;;;;;;11.30;99.90;;;;;;5074257;28;19909;-77
2022/05/24 02:31:08;;;;;;;;;;;11.20;99.90;;;;;;5073682;28;20426;-74
2022/05/24 02:33:34;;;;;;;;;;;11.00;99.90;;;;;;5073503;28;19908;-75
2022/05/24 02:36:00;;;;;;;;;;;11.00;99.90;;;;;;5073883;28;19926;-76
2022/05/24 02:38:26;;;;;;;;;;;11.10;99.90;;;;;;5074087;28;20311;-74
2022/05/24 02:43:36;;;;;;;;;;;11.00;99.90;;;;;;5073648;28;19915;-74
2022/05/24 02:46:02;;;;;;;;;;;10.80;99.90;;;;;;5073929;28;19913;-76
2022/05/24 02:48:28;;;;;;;;;;;10.80;99.90;;;;;;5073232;28;19913;-77
2022/05/24 02:50:53;;;;;;;;;;;10.70;99.90;;;;;;5073348;28;19908;-75
2022/05/24 02:53:19;;;;;;;;;;;10.70;99.90;;;;;;5073759;28;20292;-76
2022/05/24 02:55:44;;;;;;;;;;;10.70;99.90;;;;;;5073669;28;19916;-74
2022/05/24 02:58:10;;;;;;;;;;;10.60;99.90;;;;;;5073706;28;20258;-76
2022/05/24 03:00:36;;;;;;;;;;;10.70;99.90;;;;;;5073367;28;19908;-75
2022/05/24 03:03:01;;;;;;;;;;;10.60;99.90;;;;;;5073525;28;19908;-76
2022/05/24 03:05:27;;;;;;;;;;;10.70;99.90;;;;;;5073752;28;20296;-76
2022/05/24 03:10:37;;;;;;;;;;;10.50;99.90;;;;;;5073024;28;19916;-74
2022/05/24 03:15:47;;;;;;;;;;;10.70;99.90;;;;;;5073594;28;19950;-76
2022/05/24 03:18:14;;;;;;;;;;;10.60;99.90;;;;;;5073438;28;20355;-76
2022/05/24 03:20:40;;;;;;;;;;;10.50;99.90;;;;;;5073123;28;20007;-75
2022/05/24 03:23:06;;;;;;;;;;;10.50;99.90;;;;;;5073341;28;19909;-75
2022/05/24 03:25:32;;;;;;;;;;;10.50;99.90;;;;;;5073592;28;19909;-74
2022/05/24 03:27:58;;;;;;;;;;;10.40;99.90;;;;;;5055242;28;19922;-74
2022/05/24 03:30:25;;;;;;;;;;;10.40;99.90;;;;;;5073024;28;19915;-77
2022/05/24 03:32:50;;;;;;;;;;;10.40;99.90;;;;;;5054067;28;19916;-75
2022/05/24 03:35:16;;;;;;;;;;;10.40;99.90;;;;;;5073177;28;19974;-75
2022/05/24 03:37:42;;;;;;;;;;;10.40;99.90;;;;;;5073100;28;19920;-74
2022/05/24 03:40:08;;;;;;;;;;;10.40;99.90;;;;;;5072919;28;20012;-75
2022/05/24 03:42:34;;;;;;;;;;;10.40;99.90;;;;;;5073210;28;19908;-74
2022/05/24 03:44:59;;;;;;;;;;;10.50;99.90;;;;;;5072938;28;19916;-76
2022/05/24 03:47:25;;;;;;;;;;;10.40;99.90;;;;;;5073071;28;19912;-75
2022/05/24 03:49:50;;;;;;;;;;;10.30;99.90;;;;;;5072878;28;19958;-74
2022/05/24 03:52:16;;;;;;;;;;;10.40;99.90;;;;;;5073045;28;19908;-76
2022/05/24 03:54:42;;;;;;;;;;;10.30;99.90;;;;;;5073194;28;19944;-76
2022/05/24 03:59:51;;;;;;;;;;;10.40;99.90;;;;;;5072641;28;19962;-75
2022/05/24 04:02:17;;;;;;;;;;;10.30;99.90;;;;;;5076995;28;19963;-76
2022/05/24 04:04:43;;;;;;;;;;;10.50;99.90;;;;;;5077155;28;19909;-75
2022/05/24 04:07:08;;;;;;;;;;;10.40;99.90;;;;;;5076866;28;19916;-75
2022/05/24 04:09:34;;;;;;;;;;;10.50;99.90;;;;;;5076683;28;19908;-75
2022/05/24 04:12:00;;;;;;;;;;;10.40;99.90;;;;;;5076524;28;20379;-75
2022/05/24 04:14:28;;;;;;;;;;;10.50;99.90;;;;;;5058879;28;19913;-76
2022/05/24 04:16:55;;;;;;;;;;;10.40;99.90;;;;;;5058873;28;20261;-76
2022/05/24 04:19:20;;;;;;;;;;;10.40;99.90;;;;;;5058770;28;19909;-74
2022/05/24 04:21:46;;;;;;;;;;;10.30;99.90;;;;;;5058246;28;20479;-75
2022/05/24 04:24:12;;;;;;;;;;;10.40;99.90;;;;;;5058669;28;19916;-74
2022/05/24 04:26:37;;;;;;;;;;;10.40;99.90;;;;;;5076530;28;20098;-75
2022/05/24 04:29:03;;;;;;;;;;;10.40;99.90;;;;;;5076495;28;20007;-74
2022/05/24 04:31:28;;;;;;;;;;;10.40;99.90;;;;;;5057014;28;19915;-74
2022/05/24 04:33:54;;;;;;;;;;;10.50;99.90;;;;;;5076317;28;19934;-75
2022/05/24 04:36:19;;;;;;;;;;;10.50;99.90;;;;;;5076199;28;20060;-76
2022/05/24 04:38:45;;;;;;;;;;;10.60;99.90;;;;;;5076368;28;19908;-76
2022/05/24 04:43:54;;;;;;;;;;;10.70;99.90;;;;;;5076076;28;20441;-77
2022/05/24 04:46:20;;;;;;;;;;;10.80;99.90;;;;;;5076140;28;19920;-75
2022/05/24 04:48:46;;;;;;;;;;;10.80;99.90;;;;;;5076134;28;19916;-74
2022/05/24 04:51:11;;;;;;;;;;;10.80;99.90;;;;;;5057753;28;19908;-75
2022/05/24 04:53:37;;;;;;;;;;;10.80;99.90;;;;;;5075992;28;19908;-77
2022/05/24 04:56:03;;;;;;;;;;;10.80;99.90;;;;;;5057908;28;19909;-75
2022/05/24 04:58:28;;;;;;;;;;;10.80;99.90;;;;;;5075952;28;20015;-76
2022/05/24 05:00:54;;;;;;;;;;;10.90;99.90;;;;;;5075606;28;19995;-76
2022/05/24 05:03:20;;;;;;;;;;;11.10;99.90;;;;;;5057868;28;20357;-74
2022/05/24 05:05:49;;;;;;;;;;;11.30;99.90;;;;;;5075834;28;20387;-77
2022/05/24 05:08:14;;;;;;;;;;;11.40;99.90;;;;;;5075750;28;19991;-74
2022/05/24 05:10:40;;;;;;;;;;;11.30;99.90;;;;;;5075138;28;19908;-75
2022/05/24 05:13:06;;;;;;;;;;;11.50;99.90;;;;;;5075489;28;19934;-76
2022/05/24 05:15:34;;;;;;;;;;;11.60;99.90;;;;;;5075620;28;19915;-75
2022/05/24 05:18:03;;;;;;;;;;;11.70;99.90;;;;;;5075678;28;19908;-77
2022/05/24 05:20:28;;;;;;;;;;;11.70;99.90;;;;;;5075139;28;19913;-74
2022/05/24 05:22:54;;;;;;;;;;;11.80;99.90;;;;;;5075483;28;19916;-77
2022/05/24 05:25:19;;;;;;;;;;;11.90;99.90;;;;;;5075522;28;20372;-75
2022/05/24 05:27:45;;;;;;;;;;;12.10;99.90;;;;;;5075392;28;19999;-75
2022/05/24 05:32:55;;;;;;;;;;;12.40;99.90;;;;;;5055638;28;20412;-74
2022/05/24 05:35:21;;;;;;;;;;;12.50;99.90;;;;;;5075274;28;19913;-74
2022/05/24 05:37:46;;;;;;;;;;;12.60;99.90;;;;;;5055161;28;20331;-74
2022/05/24 05:40:13;;;;;;;;;;;12.70;99.90;;;;;;5054542;28;19913;-75
2022/05/24 05:42:38;;;;;;;;;;;12.70;99.90;;;;;;5035147;28;19920;-77
2022/05/24 05:45:06;;;;;;;;;;;12.90;99.90;;;;;;5035073;28;19995;-76
2022/05/24 05:47:31;;;;;;;;;;;12.90;99.90;;;;;;5035026;28;19913;-75
2022/05/24 05:49:57;;;;;;;;;;;12.90;99.90;;;;;;5017313;28;19910;-77
2022/05/24 05:52:23;;;;;;;;;;;13.10;99.90;;;;;;5034525;28;19949;-78
2022/05/24 05:54:49;;;;;;;;;;;13.20;99.90;;;;;;5034946;28;20304;-74
2022/05/24 05:57:14;;;;;;;;;;;12.90;99.90;;;;;;5016942;28;19959;-77
2022/05/24 05:59:40;;;;;;;;;;;12.90;99.90;;;;;;5034739;28;19916;-74
2022/05/24 06:02:07;;;;;;;;;;;13.00;99.90;;;;;;5034394;28;19955;-75
2022/05/24 06:04:33;;;;;;;;;;;13.10;99.90;;;;;;5034834;28;19909;-76
2022/05/24 06:06:59;;;;;;;;;;;13.00;99.90;;;;;;5034662;28;19936;-77
2022/05/24 06:09:25;;;;;;;;;;;13.10;99.90;;;;;;5034517;28;19909;-77
2022/05/24 06:11:50;;;;;;;;;;;13.30;99.90;;;;;;5034297;28;20258;-77
2022/05/24 06:14:16;;;;;;;;;;;13.60;99.90;;;;;;5034832;28;19909;-75
2022/05/24 06:16:41;;;;;;;;;;;13.70;99.90;;;;;;5034554;28;19932;-76
2022/05/24 06:19:07;;;;;;;;;;;13.90;99.90;;;;;;5034542;28;19909;-73
2022/05/24 06:21:33;;;;;;;;;;;13.90;99.90;;;;;;5034004;28;19995;-74
2022/05/24 06:24:03;;;;;;;;;;;14.20;99.90;;;;;;5033575;28;19913;-75
2022/05/24 06:26:29;;;;;;;;;;;14.50;99.90;;;;;;5034325;28;19967;-74
2022/05/24 06:28:54;;;;;;;;;;;14.80;99.90;;;;;;5034280;28;19909;-76
2022/05/24 06:31:20;;;;;;;;;;;15.00;99.90;;;;;;5034061;28;19916;-76
2022/05/24 06:33:46;;;;;;;;;;;15.10;99.90;;;;;;4998262;28;20337;-76
2022/05/24 06:36:11;;;;;;;;;;;14.90;99.90;;;;;;5027938;28;19921;-75
2022/05/24 06:38:37;;;;;;;;;;;14.80;99.90;;;;;;5054151;28;19959;-75
2022/05/24 06:41:04;;;;;;;;;;;14.60;99.90;;;;;;5054796;28;20285;-74
2022/05/24 06:43:30;;;;;;;;;;;14.40;99.90;;;;;;5054046;28;19908;-74
2022/05/24 06:45:56;;;;;;;;;;;14.30;99.90;;;;;;5054096;28;19943;-76
2022/05/24 06:48:21;;;;;;;;;;;14.30;99.90;;;;;;5053996;28;19908;-75
2022/05/24 06:50:47;;;;;;;;;;;14.10;99.90;;;;;;5055459;28;19932;-76
2022/05/24 06:53:12;;;;;;;;;;;14.10;99.90;;;;;;5073802;28;19951;-77
2022/05/24 06:55:38;;;;;;;;;;;14.30;99.90;;;;;;5073728;28;20417;-75
2022/05/24 06:58:04;;;;;;;;;;;14.30;99.90;;;;;;5073370;28;19915;-74
2022/05/24 07:03:16;;;;;;;;;;;14.50;99.90;;;;;;5074118;28;20304;-75
2022/05/24 07:05:42;;;;;;;;;;;14.60;99.90;;;;;;5074238;28;20308;-73
2022/05/24 07:08:10;;;;;;;;;;;14.60;99.90;;;;;;5056151;28;20285;-74
2022/05/24 07:10:37;;;;;;;;;;;14.70;99.90;;;;;;5073708;28;19909;-75
2022/05/24 07:13:05;;;;;;;;;;;14.50;99.90;;;;;;5074284;28;19959;-75
2022/05/24 07:15:31;;;;;;;;;;;14.50;99.90;;;;;;5074082;28;19908;-75
2022/05/24 07:17:57;;;;;;;;;;;14.70;99.90;;;;;;5056154;28;19916;-75
2022/05/24 07:20:24;;;;;;;;;;;14.90;99.90;;;;;;5073989;28;19958;-78
2022/05/24 07:22:49;;;;;;;;;;;15.00;99.90;;;;;;5055495;28;20315;-77
2022/05/24 07:25:18;;;;;;;;;;;15.20;99.90;;;;;;5073728;28;19963;-77
2022/05/24 07:27:44;;;;;;;;;;;16.50;99.90;;;;;;5055545;28;19912;-76
2022/05/24 07:30:10;;;;;;;;;;;19.20;99.90;;;;;;5073981;28;19916;-76
2022/05/24 07:32:36;;;;;;;;;;;21.10;98.00;;;;;;5054197;28;19917;-77
2022/05/24 07:35:02;;;;;;;;;;;22.20;93.60;;;;;;5073641;28;19916;-75
2022/05/24 07:37:28;;;;;;;;;;;23.50;87.30;;;;;;5073458;28;19920;-77
2022/05/24 07:45:48;;;;;;;;;;;24.40;80.80;;;;;;5073827;28;19915;-74
2022/05/24 07:48:09;;;;;;;;;;;24.70;70.70;;;;;;5073623;28;19920;-75
2022/05/24 07:50:35;;;;;;;;;;;24.60;73.40;;;;;;5073659;28;19913;-75
2022/05/24 07:53:00;;;;;;;;;;;23.80;69.90;;;;;;5073587;28;19909;-79
2022/05/24 07:55:26;;;;;;;;;;;23.00;71.20;;;;;;5073571;28;20276;-77
2022/05/24 07:57:51;;;;;;;;;;;22.50;77.00;;;;;;5073668;28;19999;-74
2022/05/24 08:00:17;;;;;;;;;;;23.10;76.70;;;;;;5073795;28;19908;-78
2022/05/24 08:02:42;;;;;;;;;;;22.80;76.60;;;;;;5073357;28;19919;-78
2022/05/24 08:05:09;;;;;;;;;;;22.80;75.80;;;;;;5073661;28;19912;-77
2022/05/24 08:07:34;;;;;;;;;;;22.10;76.20;;;;;;5073647;28;20383;-76
2022/05/24 08:10:00;;;;;;;;;;;21.40;81.00;;;;;;5073498;28;19909;-77
2022/05/24 08:12:25;;;;;;;;;;;20.90;82.60;;;;;;5072813;28;20011;-76
2022/05/24 08:14:52;;;;;;;;;;;21.10;81.30;;;;;;5073235;28;20339;-77
2022/05/24 08:17:17;;;;;;;;;;;20.70;84.90;;;;;;5055442;28;20374;-77
2022/05/24 08:19:43;;;;;;;;;;;20.90;86.40;;;;;;5073178;28;19912;-75
2022/05/24 08:22:09;;;;;;;;;;;21.20;83.80;;;;;;5073251;28;20002;-77
2022/05/24 08:24:34;;;;;;;;;;;21.30;83.60;;;;;;5055352;28;19908;-75
2022/05/24 08:27:00;;;;;;;;;;;21.70;79.00;;;;;;5073143;28;20258;-75
2022/05/24 08:29:25;;;;;;;;;;;22.00;77.20;;;;;;5073290;28;19908;-76
2022/05/24 08:31:51;;;;;;;;;;;21.40;76.60;;;;;;5072926;28;19940;-75
2022/05/24 08:34:17;;;;;;;;;;;21.50;76.60;;;;;;5053904;28;19943;-76
2022/05/24 08:36:42;;;;;;;;;;;22.30;79.10;;;;;;5072875;28;19927;-75
2022/05/24 08:39:08;;;;;;;;;;;22.50;77.30;;;;;;5072942;28;20003;-76
2022/05/24 08:41:34;;;;;;;;;;;22.60;75.50;;;;;;5073119;28;20276;-76
2022/05/24 08:49:43;;;;;;;;;;;21.20;78.50;;;;;;5076616;28;19914;-74
2022/05/24 08:52:09;;;;;;;;;;;21.60;78.40;;;;;;5076089;28;20399;-78
2022/05/24 08:54:43;;;;;;;;;;;22.90;76.40;;;;;;5076653;28;19913;-77
2022/05/24 08:57:15;;;;;;;;;;;23.40;70.90;;;;;;5076253;28;19912;-77
2022/05/24 09:00:11;;;;;;;;;;;23.90;67.50;;;;;;5076611;28;19915;-79
2022/05/24 09:02:42;;;;;;;;;;;24.90;66.80;;;;;;5059011;28;20019;-77
2022/05/24 09:05:15;;;;;;;;;;;23.80;70.10;;;;;;5076101;28;19909;-76
2022/05/24 09:07:48;;;;;;;;;;;21.80;70.30;;;;;;5076574;28;19912;-75
2022/05/24 09:10:20;;;;;;;;;;;21.20;73.40;;;;;;5076695;28;19958;-76
2022/05/24 09:13:11;;;;;;;;;;;22.00;74.90;;;;;;5060681;28;19909;-77
2022/05/24 09:15:47;;;;;;;;;;;23.20;69.40;;;;;;5053054;28;19909;-77
2022/05/24 09:18:20;;;;;;;;;;;23.90;69.00;;;;;;5055964;28;19913;-77
2022/05/24 09:20:46;;;;;;;;;;;24.70;65.90;;;;;;5055978;28;19944;-76
2022/05/24 09:23:15;;;;;;;;;;;23.20;66.20;;;;;;5055645;28;19948;-75
2022/05/24 09:25:53;;;;;;;;;;;23.30;67.70;;;;;;5056040;28;19915;-77
2022/05/24 09:28:18;;;;;;;;;;;24.40;66.00;;;;;;5055763;28;19966;-77
2022/05/24 09:30:45;;;;;;;;;;;24.70;62.90;;;;;;5055804;28;19909;-76
2022/05/24 09:33:24;;;;;;;;;;;24.40;63.40;;;;;;5055559;28;19975;-78
2022/05/24 09:35:54;;;;;;;;;;;23.00;65.40;;;;;;5039207;28;19959;-77
2022/05/24 09:38:27;;;;;;;;;;;23.50;67.10;;;;;;5037461;28;20205;-76
2022/05/24 09:40:54;;;;;;;;;;;24.40;65.40;;;;;;5055717;28;19913;-75
2022/05/24 09:43:27;;;;;;;;;;;24.40;61.80;;;;;;5055210;28;19936;-78
2022/05/24 09:45:59;;;;;;;;;;;25.80;61.80;;;;;;5055676;28;19978;-77
2022/05/24 09:48:28;;;;;;;;;;;26.00;61.10;;;;;;5055844;28;19959;-76
2022/05/24 09:50:54;;;;;;;;;;;24.60;60.10;;;;;;5055666;28;20343;-76
2022/05/24 09:53:27;;;;;;;;;;;23.50;63.10;;;;;;5055322;28;20393;-77
2022/05/24 09:56:01;;;;;;;;;;;23.70;62.70;;;;;;5055463;28;19909;-78
2022/05/24 09:58:37;;;;;;;;;;;25.00;60.60;;;;;;5055620;28;19915;-74
2022/05/24 10:01:06;;;;;;;;;;;26.00;57.80;;;;;;5055668;28;19909;-77
2022/05/24 10:03:33;;;;;;;;;;;26.40;56.10;;;;;;5055476;28;19908;-77
2022/05/24 10:06:05;;;;;;;;;;;28.20;56.00;;;;;;5054221;28;19919;-75
2022/05/24 10:08:34;;;;;;;;;;;26.80;53.80;;;;;;5055317;28;20376;-77
2022/05/24 10:11:04;;;;;;;;;;;24.60;58.30;;;;;;5055424;28;20367;-77
2022/05/24 10:13:30;;;;;;;;;;;23.70;61.70;;;;;;5054779;28;19999;-77
2022/05/24 10:16:16;;;;;;;;;;;23.20;62.00;;;;;;5054087;28;20000;-74
2022/05/24 10:18:50;;;;;;;;;;;23.00;61.30;;;;;;5055154;28;19955;-77
2022/05/24 10:21:18;;;;;;;;;;;23.10;62.50;;;;;;5054970;28;19908;-77
2022/05/24 10:23:51;;;;;;;;;;;23.20;62.20;;;;;;5055120;28;19909;-75
2022/05/24 10:26:16;;;;;;;;;;;23.50;61.40;;;;;;5053468;28;20371;-76
2022/05/24 10:28:45;;;;;;;;;;;24.00;61.60;;;;;;5054896;28;19940;-77
2022/05/24 10:31:29;;;;;;;;;;;24.90;60.60;;;;;;5054738;28;20439;-75
2022/05/24 10:40:03;;;;;;;;;;;23.90;60.70;;;;;;5054308;28;20301;-77
2022/05/24 10:42:43;;;;;;;;;;;23.50;61.70;;;;;;5064075;28;19995;-76
2022/05/24 10:45:17;;;;;;;;;;;23.70;62.30;;;;;;5074225;28;19912;-77
2022/05/24 10:47:46;;;;;;;;;;;24.20;60.80;;;;;;5071144;28;20288;-77
2022/05/24 10:50:15;;;;;;;;;;;24.80;60.50;;;;;;5074534;28;19958;-77
2022/05/24 10:52:54;;;;;;;;;;;25.30;59.40;;;;;;5056249;28;19916;-76
2022/05/24 10:55:20;;;;;;;;;;;24.70;57.70;;;;;;5074477;28;20260;-77
2022/05/24 10:57:54;;;;;;;;;;;24.40;58.70;;;;;;5074357;28;19908;-76
2022/05/24 11:00:26;;;;;;;;;;;23.50;60.20;;;;;;5074474;28;20275;-75
2022/05/24 11:03:10;;;;;;;;;;;22.30;64.70;;;;;;5052879;28;19908;-77
2022/05/24 11:05:37;;;;;;;;;;;21.10;68.30;;;;;;5036485;28;19909;-74
2022/05/24 11:08:22;;;;;;;;;;;20.40;75.30;;;;;;5052483;28;20503;-76
2022/05/24 11:10:49;;;;;;;;;;;20.80;73.30;;;;;;5057073;28;19935;-75
2022/05/24 11:13:20;;;;;;;;;;;25.80;71.50;;;;;;5062723;28;19932;-76
2022/05/24 11:15:49;;;;;;;;;;;29.00;59.80;;;;;;5062765;28;19952;-75
2022/05/24 11:18:25;;;;;;;;;;;29.70;58.80;;;;;;5063972;28;19908;-77
2022/05/24 11:21:11;;;;;;;;;;;29.10;55.40;;;;;;5063953;28;19998;-75
2022/05/24 11:23:46;;;;;;;;;;;29.10;55.40;;;;;;5057134;28;19913;-75
2022/05/24 11:26:15;;;;;;;;;;;30.20;53.80;;;;;;5037744;28;19909;-76
2022/05/24 11:28:43;;;;;;;;;;;29.50;49.40;;;;;;5061270;28;19956;-77
2022/05/24 11:31:28;;;;;;;;;;;29.60;52.30;;;;;;5063588;28;20362;-76
2022/05/24 11:33:54;;;;;;;;;;;29.90;51.50;;;;;;5045336;28;19943;-76
2022/05/24 11:36:34;;;;;;;;;;;29.20;50.00;;;;;;5062913;28;19924;-76
2022/05/24 11:39:29;;;;;;;;;;;28.80;50.70;;;;;;5061402;28;19909;-76
2022/05/24 11:42:32;;;;;;;;;;;29.00;49.50;;;;;;5044558;28;19915;-77
2022/05/24 11:45:00;;;;;;;;;;;29.80;49.40;;;;;;5001551;28;19940;-78
2022/05/24 11:47:39;;;;;;;;;;;30.20;47.20;;;;;;5052331;28;19913;-75
2022/05/24 11:50:05;;;;;;;;;;;30.20;47.80;;;;;;5053796;28;19916;-77
2022/05/24 11:52:55;;;;;;;;;;;30.60;47.60;;;;;;5053332;28;19908;-76
2022/05/24 11:55:36;;;;;;;;;;;30.50;45.50;;;;;;5041329;28;19916;-77
2022/05/24 11:58:17;;;;;;;;;;;29.10;48.20;;;;;;5053719;28;19911;-76
2022/05/24 12:00:54;;;;;;;;;;;28.90;47.80;;;;;;5053786;28;19909;-75
2022/05/24 12:09:11;;;;;;;;;;;27.20;50.20;;;;;;5053397;28;19982;-76
2022/05/24 12:11:37;;;;;;;;;;;25.80;52.80;;;;;;5053040;28;20358;-76
2022/05/24 12:14:15;;;;;;;;;;;25.20;53.00;;;;;;5053636;28;19916;-76
2022/05/24 12:16:46;;;;;;;;;;;24.80;53.50;;;;;;5053355;28;19916;-78
2022/05/24 12:19:29;;;;;;;;;;;25.30;52.60;;;;;;5053444;28;19909;-75
2022/05/24 12:21:55;;;;;;;;;;;25.40;51.80;;;;;;5054160;28;19955;-76
2022/05/24 12:24:30;;;;;;;;;;;26.80;49.80;;;;;;5055373;28;20019;-76
2022/05/24 12:27:21;;;;;;;;;;;27.60;49.10;;;;;;5056629;28;19913;-77
2022/05/24 12:29:50;;;;;;;;;;;28.30;49.30;;;;;;5026076;28;19959;-75
2022/05/24 12:32:20;;;;;;;;;;;27.60;48.30;;;;;;5057026;28;20000;-74
2022/05/24 12:34:46;;;;;;;;;;;27.80;47.90;;;;;;5038025;28;19917;-75
2022/05/24 12:37:17;;;;;;;;;;;27.00;49.70;;;;;;5056321;28;19920;-77
2022/05/24 12:40:03;;;;;;;;;;;28.80;47.30;;;;;;5056856;28;19994;-75
2022/05/24 12:42:28;;;;;;;;;;;30.00;46.40;;;;;;5063055;28;19947;-76
2022/05/24 12:44:54;;;;;;;;;;;31.20;43.80;;;;;;5076766;28;20001;-78
2022/05/24 12:47:20;;;;;;;;;;;30.60;44.30;;;;;;5076518;28;19919;-78
2022/05/24 12:49:49;;;;;;;;;;;30.30;44.60;;;;;;5076921;28;19909;-75
2022/05/24 12:52:16;;;;;;;;;;;32.40;45.00;;;;;;5076308;28;19913;-77
2022/05/24 12:54:44;;;;;;;;;;;31.20;43.00;;;;;;5076698;28;19962;-77
2022/05/24 12:57:13;;;;;;;;;;;29.30;44.70;;;;;;5092115;28;19915;-77
2022/05/24 12:59:40;;;;;;;;;;;27.70;44.80;;;;;;5076905;28;20007;-77
2022/05/24 13:02:33;;;;;;;;;;;27.60;47.10;;;;;;5058563;28;19962;-79
2022/05/24 13:05:01;;;;;;;;;;;28.30;46.20;;;;;;5073564;28;19915;-76
2022/05/24 13:07:36;;;;;;;;;;;28.40;45.60;;;;;;5076428;28;19913;-77
2022/05/24 13:10:06;;;;;;;;;;;28.50;46.40;;;;;;5076570;28;19944;-76
2022/05/24 13:12:31;;;;;;;;;;;28.10;46.40;;;;;;5076037;28;20375;-77
2022/05/24 13:14:57;;;;;;;;;;;27.30;47.90;;;;;;5076494;28;19966;-76
2022/05/24 13:17:24;;;;;;;;;;;27.10;50.20;;;;;;5076227;28;19920;-76
2022/05/24 13:19:53;;;;;;;;;;;26.60;51.00;;;;;;5076157;28;19909;-76
2022/05/24 13:22:19;;;;;;;;;;;26.10;52.50;;;;;;5057830;28;19995;-76
2022/05/24 13:24:54;;;;;;;;;;;25.20;53.90;;;;;;5076313;28;19931;-78
2022/05/24 13:27:20;;;;;;;;;;;24.40;55.40;;;;;;5075760;28;19919;-76
2022/05/24 13:35:23;;;;;;;;;;;22.40;61.70;;;;;;5056757;28;20383;-75
2022/05/24 13:37:50;;;;;;;;;;;21.70;67.00;;;;;;5076247;28;20007;-75
2022/05/24 13:40:16;;;;;;;;;;;22.00;71.40;;;;;;5076095;28;19931;-75
2022/05/24 13:42:53;;;;;;;;;;;22.40;72.40;;;;;;5075727;28;20356;-76
2022/05/24 13:45:27;;;;;;;;;;;23.10;72.00;;;;;;5075500;28;19947;-77
2022/05/24 13:47:56;;;;;;;;;;;23.70;71.00;;;;;;5075707;28;20290;-77
2022/05/24 13:50:25;;;;;;;;;;;23.70;71.60;;;;;;5075588;28;19992;-77
2022/05/24 13:52:50;;;;;;;;;;;23.50;72.80;;;;;;5075286;28;19908;-77
2022/05/24 13:55:21;;;;;;;;;;;23.40;73.60;;;;;;5075750;28;19954;-76
2022/05/24 13:57:52;;;;;;;;;;;23.90;75.00;;;;;;5075539;28;19908;-76
2022/05/24 14:00:25;;;;;;;;;;;24.20;76.40;;;;;;5075743;28;19915;-76
2022/05/24 14:02:54;;;;;;;;;;;24.50;72.50;;;;;;5075236;28;19950;-78
2022/05/24 14:05:28;;;;;;;;;;;23.90;71.60;;;;;;5075610;28;19970;-76
2022/05/24 14:07:54;;;;;;;;;;;23.40;77.90;;;;;;5075486;28;19912;-78
2022/05/24 14:10:19;;;;;;;;;;;23.70;76.30;;;;;;5075178;28;19987;-75
2022/05/24 14:12:45;;;;;;;;;;;24.00;75.90;;;;;;5069253;28;19908;-75
2022/05/24 14:15:10;;;;;;;;;;;24.60;73.10;;;;;;5055344;28;20425;-77
2022/05/24 14:17:36;;;;;;;;;;;24.90;72.10;;;;;;5055165;28;19909;-77
2022/05/24 14:20:02;;;;;;;;;;;26.10;69.60;;;;;;5055054;28;19908;-77
2022/05/24 14:22:27;;;;;;;;;;;27.90;64.80;;;;;;5054740;28;20258;-76
2022/05/24 14:24:53;;;;;;;;;;;29.20;63.60;;;;;;5055073;28;20283;-76
2022/05/24 14:27:18;;;;;;;;;;;27.80;62.50;;;;;;5053637;28;19924;-78
2022/05/24 14:29:45;;;;;;;;;;;27.10;63.00;;;;;;5054769;28;20019;-76
2022/05/24 14:32:11;;;;;;;;;;;26.70;63.30;;;;;;5054306;28;19970;-78
2022/05/24 14:34:36;;;;;;;;;;;26.60;63.50;;;;;;5036448;28;19995;-77
2022/05/24 14:37:03;;;;;;;;;;;26.60;62.80;;;;;;5054631;28;20371;-75
2022/05/24 14:39:29;;;;;;;;;;;26.10;62.90;;;;;;5054917;28;20490;-77
2022/05/24 14:41:54;;;;;;;;;;;26.10;64.70;;;;;;5054802;28;19909;-74
2022/05/24 14:44:25;;;;;;;;;;;26.80;61.70;;;;;;5053330;28;20365;-78
2022/05/24 14:46:50;;;;;;;;;;;27.10;61.00;;;;;;5054510;28;19913;-78
2022/05/24 14:49:16;;;;;;;;;;;27.70;60.00;;;;;;5054573;28;20409;-76
2022/05/24 14:51:44;;;;;;;;;;;27.40;59.50;;;;;;5054456;28;19916;-78
2022/05/24 14:54:09;;;;;;;;;;;27.00;60.10;;;;;;5054028;28;19913;-76
2022/05/24 14:56:36;;;;;;;;;;;30.00;60.00;;;;;;5054428;28;19916;-77
2022/05/24 14:59:01;;;;;;;;;;;32.70;55.20;;;;;;5054301;28;19933;-76
2022/05/24 15:01:27;;;;;;;;;;;34.30;51.80;;;;;;5054275;28;19963;-77
2022/05/24 15:03:53;;;;;;;;;;;34.60;50.70;;;;;;5054034;28;19909;-77
2022/05/24 15:06:18;;;;;;;;;;;35.20;49.50;;;;;;5054066;28;20368;-76
2022/05/24 15:17:00;;;;;;;;;;;35.90;46.00;;;;;;5053973;28;19967;-76
2022/05/24 15:19:26;;;;;;;;;;;35.70;44.10;;;;;;5053821;28;19915;-77
2022/05/24 15:21:51;;;;;;;;;;;34.00;44.50;;;;;;5053828;28;19909;-76
2022/05/24 15:24:18;;;;;;;;;;;30.50;46.20;;;;;;5053534;28;19909;-76